createdAt,value
2023-05-22T00:00:21.706Z,100246.81
2023-05-22T00:02:50.941Z,100238.03
2023-05-22T00:05:18.592Z,100248.59
2023-05-22T00:07:46.211Z,100240.44
2023-05-22T00:10:13.275Z,100246.97
2023-05-22T00:12:40.504Z,100241.06
2023-05-22T00:15:08.185Z,100234.72
2023-05-22T00:17:35.498Z,100234.72
2023-05-22T00:20:10.951Z,100235.78
2023-05-22T00:22:38.969Z,100232.78
2023-05-22T00:25:06.971Z,100231.84
2023-05-22T00:27:35.023Z,100230.06
2023-05-22T00:30:03.644Z,100231.53
2023-05-22T00:32:32.702Z,100229.00
2023-05-22T00:34:59.645Z,100226.91
2023-05-22T00:37:26.644Z,100229.16
2023-05-22T00:39:53.763Z,100218.47
2023-05-22T00:42:23.885Z,100226.16
2023-05-22T00:44:50.781Z,100218.63
2023-05-22T00:47:21.780Z,100221.69
2023-05-22T00:49:49.717Z,100220.44
2023-05-22T00:52:18.094Z,100226.50
2023-05-22T00:54:46.001Z,100228.75
2023-05-22T00:57:13.342Z,100225.53
2023-05-22T00:59:40.702Z,100229.41
2023-05-22T01:02:09.014Z,100231.28
2023-05-22T01:04:37.268Z,100231.63
2023-05-22T01:07:06.183Z,100226.84
2023-05-22T01:09:32.992Z,100236.75
2023-05-22T01:12:14.462Z,100228.13
2023-05-22T01:14:57.574Z,100236.16
2023-05-22T01:17:34.932Z,100235.19
2023-05-22T01:20:11.019Z,100241.56
2023-05-22T01:23:06.064Z,100244.47
2023-05-22T01:25:36.422Z,100242.06
2023-05-22T01:28:17.184Z,100243.81
2023-05-22T01:30:58.535Z,100241.09
2023-05-22T01:33:28.833Z,100242.84
2023-05-22T01:35:59.141Z,100236.44
2023-05-22T01:38:27.697Z,100234.38
2023-05-22T01:40:56.025Z,100242.34
2023-05-22T01:43:22.884Z,100241.72
2023-05-22T01:45:50.042Z,100239.47
2023-05-22T01:48:16.824Z,100231.66
2023-05-22T01:50:46.485Z,100244.91
2023-05-22T01:53:18.697Z,100245.38
2023-05-22T01:55:55.956Z,100241.69
2023-05-22T01:58:38.694Z,100247.63
2023-05-22T02:01:10.228Z,100244.41
2023-05-22T02:03:39.767Z,100251.47
2023-05-22T02:06:09.272Z,100253.69
2023-05-22T02:08:39.951Z,100247.13
2023-05-22T02:11:11.245Z,100250.00
2023-05-22T02:13:38.328Z,100246.34
2023-05-22T02:16:06.318Z,100247.44
2023-05-22T02:18:33.721Z,100251.75
2023-05-22T02:21:03.257Z,100257.19
2023-05-22T02:23:32.072Z,100254.47
2023-05-22T02:25:58.898Z,100247.91
2023-05-22T02:28:27.650Z,100254.97
2023-05-22T02:30:54.396Z,100256.06
2023-05-22T02:33:21.514Z,100254.97
2023-05-22T02:35:50.040Z,100249.84
2023-05-22T02:38:17.145Z,100251.28
2023-05-22T02:40:44.777Z,100250.81
2023-05-22T02:43:11.669Z,100245.38
2023-05-22T02:45:38.494Z,100247.59
2023-05-22T02:48:06.481Z,100250.31
2023-05-22T02:50:33.306Z,100247.59
2023-05-22T02:53:00.355Z,100249.53
2023-05-22T02:55:27.044Z,100254.47
2023-05-22T02:57:53.869Z,100260.69
2023-05-22T03:00:23.493Z,100256.41
2023-05-22T03:02:51.498Z,100257.19
2023-05-22T03:05:18.583Z,100257.94
2023-05-22T03:07:49.127Z,100258.56
2023-05-22T03:10:16.193Z,100253.13
2023-05-22T03:12:42.979Z,100258.56
2023-05-22T03:15:11.214Z,100257.78
2023-05-22T03:17:39.719Z,100259.34
2023-05-22T03:20:08.586Z,100263.31
2023-05-22T03:22:35.612Z,100261.41
2023-05-22T03:25:02.983Z,100267.16
2023-05-22T03:27:29.852Z,100268.25
2023-05-22T03:29:56.837Z,100267.47
2023-05-22T03:32:24.154Z,100270.97
2023-05-22T03:34:50.994Z,100272.09
2023-05-22T03:37:17.812Z,100272.09
2023-05-22T03:39:44.948Z,100275.88
2023-05-22T03:42:21.798Z,100273.16
2023-05-22T03:44:50.046Z,100275.09
2023-05-22T03:47:18.252Z,100272.72
2023-05-22T03:49:45.974Z,100277.66
2023-05-22T03:52:12.766Z,100281.94
2023-05-22T03:54:39.407Z,100278.13
2023-05-22T03:57:06.330Z,100275.88
2023-05-22T03:59:33.147Z,100279.09
2023-05-22T04:02:01.341Z,100279.94
2023-05-22T04:04:29.738Z,100273.06
2023-05-22T04:06:58.190Z,100284.09
2023-05-22T04:09:32.012Z,100279.66
2023-05-22T04:11:58.889Z,100287.44
2023-05-22T04:14:27.870Z,100288.91
2023-05-22T04:16:55.151Z,100296.44
2023-05-22T04:19:22.378Z,100291.16
2023-05-22T04:21:49.306Z,100296.75
2023-05-22T04:24:18.518Z,100298.53
2023-05-22T04:26:45.237Z,100300.31
2023-05-22T04:29:14.625Z,100290.09
2023-05-22T04:31:42.204Z,100300.63
2023-05-22T04:34:15.120Z,100304.78
2023-05-22T04:36:45.195Z,100313.41
2023-05-22T04:39:13.909Z,100301.56
2023-05-22T04:41:41.056Z,100312.44
2023-05-22T04:44:07.882Z,100306.19
2023-05-22T04:46:36.010Z,100309.88
2023-05-22T04:49:03.250Z,100316.59
2023-05-22T04:51:31.342Z,100308.31
2023-05-22T04:53:58.536Z,100312.28
2023-05-22T04:56:35.336Z,100313.09
2023-05-22T04:59:05.655Z,100308.47
2023-05-22T05:01:35.073Z,100309.28
2023-05-22T05:04:03.788Z,100312.47
2023-05-22T05:06:30.800Z,100312.78
2023-05-22T05:08:58.170Z,100306.09
2023-05-22T05:11:25.176Z,100311.88
2023-05-22T05:13:52.037Z,100302.44
2023-05-22T05:16:20.630Z,100310.91
2023-05-22T05:18:47.525Z,100312.88
2023-05-22T05:21:15.220Z,100310.94
2023-05-22T05:23:42.706Z,100312.22
2023-05-22T05:26:09.588Z,100310.28
2023-05-22T05:28:37.839Z,100316.06
2023-05-22T05:31:07.853Z,100310.75
2023-05-22T05:33:52.124Z,100309.28
2023-05-22T05:36:31.704Z,100311.84
2023-05-22T05:38:59.176Z,100304.47
2023-05-22T05:41:26.791Z,100309.56
2023-05-22T05:44:01.489Z,100306.84
2023-05-22T05:46:31.340Z,100309.84
2023-05-22T05:48:58.798Z,100304.34
2023-05-22T05:51:26.585Z,100312.97
2023-05-22T05:53:53.499Z,100312.94
2023-05-22T05:56:21.342Z,100312.25
2023-05-22T05:58:48.463Z,100313.63
2023-05-22T06:01:35.263Z,100315.63
2023-05-22T06:04:05.467Z,100317.88
2023-05-22T06:06:36.892Z,100323.63
2023-05-22T06:09:06.776Z,100329.25
2023-05-22T06:11:46.455Z,100328.97
2023-05-22T06:14:13.352Z,100328.84
2023-05-22T06:16:40.758Z,100333.75
2023-05-22T06:19:08.201Z,100332.13
2023-05-22T06:21:35.182Z,100330.81
2023-05-22T06:24:02.032Z,100333.63
2023-05-22T06:26:30.657Z,100335.25
2023-05-22T06:28:57.487Z,100334.50
2023-05-22T06:31:25.150Z,100329.38
2023-05-22T06:33:55.650Z,100332.03
2023-05-22T06:36:24.229Z,100333.28
2023-05-22T06:38:54.771Z,100335.94
2023-05-22T06:41:53.698Z,100333.34
2023-05-22T06:44:20.894Z,100330.84
2023-05-22T06:46:55.937Z,100328.00
2023-05-22T06:49:24.773Z,100326.69
2023-05-22T06:51:54.052Z,100328.03
2023-05-22T06:54:21.565Z,100327.41
2023-05-22T06:56:52.417Z,100325.66
2023-05-22T06:59:20.722Z,100327.41
2023-05-22T07:02:03.112Z,100321.00
2023-05-22T07:04:37.679Z,100323.25
2023-05-22T07:07:12.853Z,100330.78
2023-05-22T07:09:42.882Z,100327.91
2023-05-22T07:12:10.352Z,100334.38
2023-05-22T07:14:37.396Z,100323.63
2023-05-22T07:17:06.639Z,100335.66
2023-05-22T07:19:39.935Z,100340.41
2023-05-22T07:22:06.704Z,100341.06
2023-05-22T07:24:35.755Z,100342.88
2023-05-22T07:27:04.697Z,100341.16
2023-05-22T07:29:33.795Z,100351.50
2023-05-22T07:32:01.566Z,100343.03
2023-05-22T07:34:34.179Z,100343.94
2023-05-22T07:37:14.301Z,100348.28
2023-05-22T07:39:43.523Z,100344.31
2023-05-22T07:42:10.420Z,100344.72
2023-05-22T07:44:43.707Z,100348.84
2023-05-22T07:47:10.600Z,100345.88
2023-05-22T07:49:37.476Z,100340.38
2023-05-22T07:52:04.460Z,100345.38
2023-05-22T07:54:31.413Z,100346.06
2023-05-22T07:56:58.470Z,100349.72
2023-05-22T07:59:29.921Z,100345.16
2023-05-22T08:01:59.022Z,100346.22
2023-05-22T08:04:26.328Z,100355.41
2023-05-22T08:06:53.425Z,100348.31
2023-05-22T08:09:21.596Z,100341.19
2023-05-22T08:11:48.771Z,100341.13
2023-05-22T08:14:15.682Z,100349.00
2023-05-22T08:16:42.529Z,100353.44
2023-05-22T08:19:09.393Z,100349.22
2023-05-22T08:21:37.758Z,100345.91
2023-05-22T08:24:04.805Z,100341.94
2023-05-22T08:26:33.482Z,100336.19
2023-05-22T08:29:00.971Z,100337.81
2023-05-22T08:31:34.359Z,100333.44
2023-05-22T08:34:04.995Z,100327.31
2023-05-22T08:36:34.035Z,100323.69
2023-05-22T08:39:01.598Z,100321.88
2023-05-22T08:41:29.649Z,100322.09
2023-05-22T08:43:56.649Z,100322.88
2023-05-22T08:46:28.219Z,100316.97
2023-05-22T08:49:01.459Z,100317.59
2023-05-22T08:51:31.516Z,100306.00
2023-05-22T08:53:59.242Z,100309.97
2023-05-22T08:56:28.680Z,100308.81
2023-05-22T08:58:59.999Z,100307.47
2023-05-22T09:01:30.991Z,100310.56
2023-05-22T09:04:03.821Z,100309.97
2023-05-22T09:06:33.947Z,100312.28
2023-05-22T09:09:01.643Z,100310.25
2023-05-22T09:11:28.384Z,100314.41
2023-05-22T09:14:11.665Z,100314.19
2023-05-22T09:16:49.284Z,100311.72
2023-05-22T09:19:17.634Z,100312.31
2023-05-22T09:21:44.633Z,100309.63
2023-05-22T09:24:11.901Z,100306.91
2023-05-22T09:26:39.727Z,100312.00
2023-05-22T09:29:10.001Z,100311.78
2023-05-22T09:31:44.148Z,100312.03
2023-05-22T09:34:15.963Z,100307.13
2023-05-22T09:36:43.118Z,100317.56
2023-05-22T09:39:09.946Z,100313.41
2023-05-22T09:41:40.007Z,100315.56
2023-05-22T09:44:14.471Z,100308.78
2023-05-22T09:46:47.473Z,100305.84
2023-05-22T09:49:16.797Z,100309.25
2023-05-22T09:51:45.864Z,100313.31
2023-05-22T09:54:15.528Z,100314.97
2023-05-22T09:56:44.352Z,100310.06
2023-05-22T09:59:13.881Z,100307.47
2023-05-22T10:01:42.937Z,100295.50
2023-05-22T10:04:14.062Z,100302.16
2023-05-22T10:06:43.041Z,100306.47
2023-05-22T10:09:19.016Z,100304.53
2023-05-22T10:11:47.330Z,100302.84
2023-05-22T10:14:15.062Z,100306.75
2023-05-22T10:16:44.967Z,100293.88
2023-05-22T10:19:13.223Z,100305.97
2023-05-22T10:21:44.318Z,100306.00
2023-05-22T10:24:12.281Z,100304.75
2023-05-22T10:26:39.622Z,100285.34
2023-05-22T10:29:17.940Z,100290.28
2023-05-22T10:32:06.693Z,100285.78
2023-05-22T10:34:54.013Z,100283.16
2023-05-22T10:37:47.256Z,100279.84
2023-05-22T10:40:19.562Z,100273.59
2023-05-22T10:42:46.904Z,100273.78
2023-05-22T10:45:13.908Z,100265.56
2023-05-22T10:47:40.750Z,100261.34
2023-05-22T10:50:10.180Z,100259.69
2023-05-22T10:52:38.158Z,100245.88
2023-05-22T10:55:09.508Z,100240.09
2023-05-22T10:57:40.146Z,100243.38
2023-05-22T11:00:09.666Z,100235.59
2023-05-22T11:02:44.699Z,100231.13
2023-05-22T11:05:19.519Z,100229.81
2023-05-22T11:07:46.256Z,100227.09
2023-05-22T11:10:13.412Z,100234.59
2023-05-22T11:12:41.503Z,100223.38
2023-05-22T11:15:09.780Z,100221.41
2023-05-22T11:17:39.945Z,100217.69
2023-05-22T11:20:13.287Z,100225.44
2023-05-22T11:22:43.109Z,100219.78
2023-05-22T11:25:12.114Z,100219.34
2023-05-22T11:27:41.310Z,100208.09
2023-05-22T11:30:09.363Z,100205.56
2023-05-22T11:32:41.350Z,100202.91
2023-05-22T11:35:08.975Z,100200.72
2023-05-22T11:37:42.670Z,100192.41
2023-05-22T11:40:10.891Z,100196.84
2023-05-22T11:42:37.986Z,100189.16
2023-05-22T11:45:05.831Z,100188.88
2023-05-22T11:47:33.160Z,100197.22
2023-05-22T11:50:01.162Z,100195.19
2023-05-22T11:52:36.742Z,100190.09
2023-05-22T11:55:08.237Z,100188.13
2023-05-22T11:57:35.768Z,100184.97
2023-05-22T12:00:06.266Z,100184.75
2023-05-22T12:02:39.366Z,100173.59
2023-05-22T12:05:07.230Z,100178.00
2023-05-22T12:07:34.145Z,100176.56
2023-05-22T12:10:01.415Z,100180.78
2023-05-22T12:12:28.532Z,100171.84
2023-05-22T12:14:57.641Z,100175.13
2023-05-22T12:17:24.487Z,100170.44
2023-05-22T12:19:53.250Z,100176.31
2023-05-22T12:22:21.891Z,100163.94
2023-05-22T12:24:52.537Z,100170.69
2023-05-22T12:27:20.013Z,100167.59
2023-05-22T12:29:46.899Z,100160.25
2023-05-22T12:32:14.119Z,100173.03
2023-05-22T12:34:46.179Z,100170.06
2023-05-22T12:37:25.157Z,100166.34
2023-05-22T12:39:56.768Z,100164.50
2023-05-22T12:42:24.649Z,100167.81
2023-05-22T12:44:54.585Z,100166.56
2023-05-22T12:47:23.508Z,100173.22
2023-05-22T12:49:51.042Z,100167.44
2023-05-22T12:52:17.853Z,100166.28
2023-05-22T12:54:44.693Z,100167.00
2023-05-22T12:57:11.625Z,100167.59
2023-05-22T12:59:38.540Z,100168.41
2023-05-22T13:02:05.871Z,100163.22
2023-05-22T13:04:33.141Z,100164.47
2023-05-22T13:07:00.147Z,100160.47
2023-05-22T13:09:27.521Z,100163.63
2023-05-22T13:11:55.466Z,100157.75
2023-05-22T13:14:22.613Z,100156.81
2023-05-22T13:16:49.514Z,100151.69
2023-05-22T13:19:17.111Z,100143.34
2023-05-22T13:21:44.123Z,100151.13
2023-05-22T13:24:11.026Z,100150.31
2023-05-22T13:26:37.950Z,100149.16
2023-05-22T13:29:04.975Z,100147.94
2023-05-22T13:31:37.175Z,100150.75
2023-05-22T13:34:04.777Z,100141.75
2023-05-22T13:36:31.716Z,100144.13
2023-05-22T13:38:58.663Z,100139.44
2023-05-22T13:41:25.850Z,100145.34
2023-05-22T13:43:54.329Z,100139.03
2023-05-22T13:46:21.958Z,100133.13
2023-05-22T13:48:48.963Z,100130.38
2023-05-22T13:51:15.771Z,100137.47
2023-05-22T13:53:42.556Z,100124.34
2023-05-22T13:56:09.318Z,100120.38
2023-05-22T13:58:36.091Z,100121.75
2023-05-22T14:01:02.902Z,100122.19
2023-05-22T14:03:29.707Z,100121.47
2023-05-22T14:05:56.763Z,100119.94
2023-05-22T14:08:24.847Z,100115.59
2023-05-22T14:10:52.103Z,100116.81
2023-05-22T14:13:19.499Z,100105.00
2023-05-22T14:15:47.106Z,100109.84
2023-05-22T14:18:14.628Z,100117.81
2023-05-22T14:20:41.515Z,100121.81
2023-05-22T14:23:08.987Z,100128.94
2023-05-22T14:25:35.825Z,100125.81
2023-05-22T14:28:02.656Z,100132.88
2023-05-22T14:30:30.975Z,100136.44
2023-05-22T14:32:58.096Z,100147.06
2023-05-22T14:35:24.926Z,100144.66
2023-05-22T14:37:51.718Z,100150.19
2023-05-22T14:40:19.456Z,100143.47
2023-05-22T14:42:46.295Z,100145.47
2023-05-22T14:45:13.053Z,100148.59
2023-05-22T14:47:42.087Z,100154.91
2023-05-22T14:50:18.917Z,100150.53
2023-05-22T14:52:50.376Z,100156.47
2023-05-22T14:55:18.938Z,100150.94
2023-05-22T14:57:45.749Z,100152.06
2023-05-22T15:00:14.290Z,100154.84
2023-05-22T15:02:41.967Z,100147.72
2023-05-22T15:05:09.735Z,100150.09
2023-05-22T15:10:07.533Z,100152.81
2023-05-22T15:12:34.365Z,100158.72
2023-05-22T15:15:01.887Z,100148.44
2023-05-22T15:17:28.712Z,100147.28
2023-05-22T15:19:55.611Z,100154.00
2023-05-22T15:22:22.367Z,100165.41
2023-05-22T15:25:02.350Z,100165.41
2023-05-22T15:27:29.928Z,100170.16
2023-05-22T15:29:56.872Z,100163.88
2023-05-22T15:32:24.176Z,100169.78
2023-05-22T15:34:51.791Z,100165.03
2023-05-22T15:37:19.442Z,100160.28
2023-05-22T15:39:46.511Z,100152.38
2023-05-22T15:42:13.522Z,100153.91
2023-05-22T15:44:49.355Z,100155.44
2023-05-22T15:47:18.630Z,100159.69
2023-05-22T15:49:49.093Z,100162.34
2023-05-22T15:52:16.962Z,100169.31
2023-05-22T15:54:46.989Z,100159.84
2023-05-22T15:57:15.143Z,100162.91
2023-05-22T15:59:47.607Z,100165.09
2023-05-22T16:02:17.213Z,100165.03
2023-05-22T16:04:45.190Z,100172.78
2023-05-22T16:07:12.476Z,100178.34
2023-05-22T16:09:39.789Z,100169.66
2023-05-22T16:12:10.410Z,100186.53
2023-05-22T16:14:39.818Z,100176.69
2023-05-22T16:17:09.429Z,100193.91
2023-05-22T16:19:36.332Z,100188.25
2023-05-22T16:22:03.911Z,100188.41
2023-05-22T16:24:31.074Z,100187.22
2023-05-22T16:27:04.050Z,100192.06
2023-05-22T16:29:32.642Z,100205.38
2023-05-22T16:31:59.576Z,100212.53
2023-05-22T16:34:26.630Z,100215.44
2023-05-22T16:36:53.433Z,100223.56
2023-05-22T16:39:20.412Z,100228.81
2023-05-22T16:41:47.533Z,100227.25
2023-05-22T16:44:14.641Z,100234.94
2023-05-22T16:46:41.594Z,100234.06
2023-05-22T16:49:08.762Z,100235.53
2023-05-22T16:51:35.640Z,100245.84
2023-05-22T16:54:05.239Z,100245.59
2023-05-22T16:56:35.167Z,100243.75
2023-05-22T16:59:02.460Z,100237.72
2023-05-22T17:01:29.752Z,100234.94
2023-05-22T17:03:58.161Z,100238.38
2023-05-22T17:06:25.014Z,100241.63
2023-05-22T17:08:52.246Z,100232.19
2023-05-22T17:11:20.027Z,100230.69
2023-05-22T17:13:49.647Z,100237.78
2023-05-22T17:16:16.899Z,100238.31
2023-05-22T17:18:44.601Z,100248.19
2023-05-22T17:21:14.425Z,100247.91
2023-05-22T17:23:43.732Z,100261.78
2023-05-22T17:26:13.335Z,100253.91
2023-05-22T17:28:40.719Z,100264.78
2023-05-22T17:31:08.703Z,100256.13
2023-05-22T17:33:36.385Z,100260.72
2023-05-22T17:36:03.775Z,100266.91
2023-05-22T17:38:31.236Z,100269.91
2023-05-22T17:40:59.654Z,100269.84
2023-05-22T17:43:26.967Z,100273.59
2023-05-22T17:45:54.686Z,100285.56
2023-05-22T17:48:27.512Z,100295.78
2023-05-22T17:50:55.016Z,100301.81
2023-05-22T17:53:32.235Z,100319.91
2023-05-22T17:55:58.969Z,100333.59
2023-05-22T17:58:29.587Z,100323.59
2023-05-22T18:00:56.511Z,100322.28
2023-05-22T18:03:25.388Z,100329.59
2023-05-22T18:05:52.647Z,100333.94
2023-05-22T18:08:21.422Z,100335.34
2023-05-22T18:10:50.924Z,100345.59
2023-05-22T18:13:19.305Z,100330.84
2023-05-22T18:15:46.793Z,100329.06
2023-05-22T18:18:13.964Z,100327.91
2023-05-22T18:20:41.007Z,100331.59
2023-05-22T18:23:08.000Z,100319.66
2023-05-22T18:25:34.936Z,100312.94
2023-05-22T18:28:01.758Z,100300.66
2023-05-22T18:30:28.631Z,100294.97
2023-05-22T18:32:55.836Z,100302.66
2023-05-22T18:35:22.697Z,100304.13
2023-05-22T18:37:49.531Z,100307.56
2023-05-22T18:40:16.553Z,100296.84
2023-05-22T18:42:43.545Z,100297.53
2023-05-22T18:45:13.669Z,100307.66
2023-05-22T18:47:40.680Z,100314.25
2023-05-22T18:50:09.379Z,100308.25
2023-05-22T18:52:36.145Z,100307.13
2023-05-22T18:55:02.938Z,100307.81
2023-05-22T18:57:29.716Z,100304.31
2023-05-22T18:59:56.669Z,100305.31
2023-05-22T19:02:23.931Z,100304.41
2023-05-22T19:04:51.183Z,100312.16
2023-05-22T19:07:18.218Z,100305.91
2023-05-22T19:09:45.547Z,100305.78
2023-05-22T19:12:12.765Z,100301.94
2023-05-22T19:14:40.949Z,100304.09
2023-05-22T19:17:07.918Z,100304.00
2023-05-22T19:19:34.874Z,100312.75
2023-05-22T19:22:01.917Z,100306.22
2023-05-22T19:24:29.413Z,100310.78
2023-05-22T19:26:56.403Z,100313.72
2023-05-22T19:29:23.511Z,100312.38
2023-05-22T19:31:50.710Z,100299.72
2023-05-22T19:34:17.698Z,100301.19
2023-05-22T19:36:44.693Z,100314.84
2023-05-22T19:39:11.682Z,100311.34
2023-05-22T19:41:38.916Z,100308.81
2023-05-22T19:44:05.873Z,100321.53
2023-05-22T19:46:33.848Z,100319.03
2023-05-22T19:49:00.934Z,100315.06
2023-05-22T19:51:30.378Z,100325.50
2023-05-22T19:53:57.181Z,100333.56
2023-05-22T19:56:24.136Z,100333.44
2023-05-22T19:58:52.205Z,100334.81
2023-05-22T20:01:19.102Z,100338.53
2023-05-22T20:03:46.614Z,100345.44
2023-05-22T20:06:13.997Z,100346.94
2023-05-22T20:08:41.549Z,100352.53
2023-05-22T20:11:08.859Z,100362.28
2023-05-22T20:13:35.750Z,100367.75
2023-05-22T20:16:03.629Z,100364.22
2023-05-22T20:18:32.305Z,100368.88
2023-05-22T20:20:59.193Z,100378.50
2023-05-22T20:23:26.399Z,100378.88
2023-05-22T20:25:53.371Z,100383.84
2023-05-22T20:28:21.842Z,100399.75
2023-05-22T20:30:50.266Z,100397.34
2023-05-22T20:33:17.944Z,100408.28
2023-05-22T20:35:49.261Z,100403.59
2023-05-22T20:38:19.062Z,100402.63
2023-05-22T20:40:47.657Z,100398.41
2023-05-22T20:43:14.847Z,100408.25
2023-05-22T20:45:45.694Z,100407.97
2023-05-22T20:48:14.364Z,100414.75
2023-05-22T20:50:42.285Z,100415.88
2023-05-22T20:53:09.354Z,100414.63
2023-05-22T20:55:36.270Z,100418.34
2023-05-22T20:58:05.243Z,100423.97
2023-05-22T21:00:32.101Z,100431.19
2023-05-22T21:03:01.245Z,100425.81
2023-05-22T21:05:28.772Z,100437.03
2023-05-22T21:07:56.962Z,100434.16
2023-05-22T21:10:24.114Z,100443.66
2023-05-22T21:12:52.780Z,100443.03
2023-05-22T21:15:20.276Z,100438.38
2023-05-22T21:17:47.806Z,100444.50
2023-05-22T21:20:16.368Z,100447.38
2023-05-22T21:22:45.482Z,100440.03
2023-05-22T21:25:12.537Z,100447.25
2023-05-22T21:27:39.415Z,100451.75
2023-05-22T21:30:07.006Z,100449.03
2023-05-22T21:32:34.025Z,100449.69
2023-05-22T21:35:01.366Z,100459.13
2023-05-22T21:37:28.401Z,100460.09
2023-05-22T21:39:55.396Z,100454.00
2023-05-22T21:42:22.575Z,100452.38
2023-05-22T21:44:49.389Z,100462.03
2023-05-22T21:47:16.291Z,100459.31
2023-05-22T21:49:43.279Z,100464.94
2023-05-22T21:52:10.205Z,100470.25
2023-05-22T21:54:37.205Z,100462.88
2023-05-22T21:57:04.106Z,100464.16
2023-05-22T21:59:30.975Z,100460.19
2023-05-22T22:01:57.972Z,100463.84
2023-05-22T22:04:24.754Z,100467.69
2023-05-22T22:06:51.461Z,100465.28
2023-05-22T22:09:18.133Z,100474.59
2023-05-22T22:11:45.985Z,100466.75
2023-05-22T22:14:12.730Z,100475.22
2023-05-22T22:16:40.740Z,100478.25
2023-05-22T22:19:07.662Z,100477.28
2023-05-22T22:21:35.016Z,100474.72
2023-05-22T22:24:01.832Z,100471.50
2023-05-22T22:26:30.053Z,100482.41
2023-05-22T22:28:57.668Z,100476.97
2023-05-22T22:31:24.654Z,100484.31
2023-05-22T22:33:51.487Z,100487.53
2023-05-22T22:36:18.367Z,100483.38
2023-05-22T22:38:45.227Z,100483.69
2023-05-22T22:41:12.077Z,100480.97
2023-05-22T22:43:38.829Z,100478.56
2023-05-22T22:46:05.742Z,100478.06
2023-05-22T22:48:33.736Z,100483.84
2023-05-22T22:51:00.696Z,100474.72
2023-05-22T22:53:27.415Z,100476.47
2023-05-22T22:55:59.253Z,100478.53
2023-05-22T22:58:26.224Z,100487.34
2023-05-22T23:00:53.141Z,100498.06
2023-05-22T23:03:20.252Z,100496.28
2023-05-22T23:05:47.101Z,100498.53
2023-05-22T23:08:13.969Z,100505.84
2023-05-22T23:10:43.599Z,100505.06
2023-05-22T23:13:10.222Z,100505.53
2023-05-22T23:19:24.157Z,100504.38
2023-05-22T23:21:51.980Z,100510.78
2023-05-22T23:24:18.878Z,100506.97
2023-05-22T23:26:45.715Z,100508.56
2023-05-22T23:29:12.655Z,100516.09
2023-05-22T23:31:41.131Z,100518.16
2023-05-22T23:34:07.964Z,100523.78
2023-05-22T23:36:34.868Z,100518.53
2023-05-22T23:39:01.660Z,100514.69
2023-05-22T23:41:28.397Z,100514.69
2023-05-22T23:43:55.189Z,100516.28
2023-05-22T23:46:22.016Z,100526.69
2023-05-22T23:48:48.837Z,100530.81
2023-05-22T23:51:16.992Z,100518.84
2023-05-22T23:53:43.842Z,100520.41
2023-05-22T23:56:10.986Z,100524.28
2023-05-22T23:58:38.538Z,100527.13
